Time;durP1;ratioP1;P1;durP2;ratioP2;P2;SDS_P1;SDS_P2;PMS_P1;PMS_P2;Temp;Humidity;BMP_temperature;BMP_pressure;BME280_temperature;BME280_humidity;BME280_pressure;Samples;Min_cycle;Max_cycle;Signal;HPM_P1;HPM_P2
2023/07/08 00:00:47;;;;;;;2.13;1.98;;;16.90;90.20;;;;;;4930076;29;20063;-72
2023/07/08 00:03:14;;;;;;;4.05;2.50;;;16.90;90.60;;;;;;4938794;28;20175;-70
2023/07/08 00:05:40;;;;;;;2.80;2.00;;;16.80;90.90;;;;;;4943466;28;20054;-70
2023/07/08 00:08:12;;;;;;;2.22;1.80;;;16.80;91.50;;;;;;4934701;28;20042;-69
2023/07/08 00:10:38;;;;;;;3.45;2.33;;;16.80;92.20;;;;;;4945096;28;20183;-71
2023/07/08 00:13:04;;;;;;;2.35;1.85;;;16.80;92.40;;;;;;4951802;28;20117;-70
2023/07/08 00:15:32;;;;;;;3.03;2.15;;;16.70;93.00;;;;;;4950756;28;20055;-70
2023/07/08 00:17:59;;;;;;;4.78;2.33;;;16.70;93.00;;;;;;4949087;28;20103;-70
2023/07/08 00:20:44;;;;;;;3.55;1.83;;;16.70;93.40;;;;;;4940334;28;20465;-70
2023/07/08 00:23:11;;;;;;;3.00;1.90;;;16.60;94.40;;;;;;4936073;28;20134;-71
2023/07/08 00:25:38;;;;;;;2.65;2.10;;;16.60;95.30;;;;;;4951183;28;20118;-70
2023/07/08 00:28:14;;;;;;;5.20;1.92;;;16.50;96.00;;;;;;4946971;28;20065;-70
2023/07/08 00:30:40;;;;;;;3.28;1.90;;;16.50;96.50;;;;;;4951813;28;20517;-70
2023/07/08 00:33:06;;;;;;;8.02;2.00;;;16.50;97.20;;;;;;4932421;28;20137;-70
2023/07/08 00:35:38;;;;;;;5.10;2.00;;;16.50;97.30;;;;;;4928896;29;20486;-70
2023/07/08 00:38:28;;;;;;;7.53;1.90;;;16.40;97.50;;;;;;4962236;28;20125;-70
2023/07/08 00:40:57;;;;;;;4.88;2.13;;;16.40;98.30;;;;;;4968525;28;20097;-71
2023/07/08 00:43:35;;;;;;;3.40;2.08;;;16.30;98.10;;;;;;4951208;28;20051;-70
2023/07/08 00:46:29;;;;;;;3.47;2.13;;;16.30;97.90;;;;;;4950653;28;20078;-71
2023/07/08 00:49:07;;;;;;;2.70;2.10;;;16.20;97.70;;;;;;4940611;28;20529;-70
2023/07/08 00:51:39;;;;;;;3.45;2.08;;;16.20;97.50;;;;;;4934321;28;20098;-69
2023/07/08 00:54:16;;;;;;;3.67;2.08;;;16.20;96.90;;;;;;4930298;28;20051;-70
2023/07/08 00:56:46;;;;;;;4.43;2.10;;;16.20;96.70;;;;;;4940588;29;20066;-71
2023/07/08 00:59:24;;;;;;;4.72;2.15;;;16.20;96.10;;;;;;4936050;28;20057;-71
2023/07/08 01:01:53;;;;;;;3.92;2.33;;;16.20;95.40;;;;;;4950934;28;20050;-70
2023/07/08 01:04:22;;;;;;;3.10;1.85;;;16.20;94.60;;;;;;4898035;29;20086;-70
2023/07/08 01:06:57;;;;;;;4.78;2.08;;;16.30;94.30;;;;;;4929706;29;20525;-71
2023/07/08 01:09:32;;;;;;;2.80;1.90;;;16.30;94.40;;;;;;4913559;29;20039;-70
2023/07/08 01:12:02;;;;;;;2.20;2.00;;;16.30;95.00;;;;;;4939139;29;20082;-72
2023/07/08 01:14:32;;;;;;;2.78;1.77;;;16.30;94.90;;;;;;4949203;29;20501;-70
2023/07/08 01:16:58;;;;;;;5.28;2.10;;;16.30;95.40;;;;;;4914174;29;20509;-71
2023/07/08 01:19:32;;;;;;;2.05;1.80;;;16.30;95.70;;;;;;4920919;29;20074;-70
2023/07/08 01:21:59;;;;;;;3.65;2.03;;;16.30;95.90;;;;;;4947452;29;20566;-70
2023/07/08 01:24:25;;;;;;;4.35;1.92;;;16.30;95.90;;;;;;4930808;29;20054;-71
2023/07/08 01:26:51;;;;;;;3.55;1.85;;;16.30;96.40;;;;;;4932428;29;20082;-70
2023/07/08 01:29:17;;;;;;;4.78;1.70;;;16.30;96.60;;;;;;4930078;29;20572;-71
2023/07/08 01:31:48;;;;;;;2.70;2.13;;;16.30;96.60;;;;;;4916111;29;20210;-71
2023/07/08 01:34:16;;;;;;;3.45;2.05;;;16.30;96.60;;;;;;4913999;29;20091;-70
2023/07/08 01:36:47;;;;;;;3.28;2.13;;;16.30;96.60;;;;;;4931732;29;20083;-70
2023/07/08 01:39:17;;;;;;;4.18;2.25;;;16.30;96.70;;;;;;4931395;29;20059;-70
2023/07/08 01:41:44;;;;;;;3.80;2.00;;;16.30;96.10;;;;;;4931010;29;20051;-70
2023/07/08 01:44:30;;;;;;;3.28;2.08;;;16.40;95.90;;;;;;4949205;29;20463;-70
2023/07/08 01:47:21;;;;;;;2.70;2.10;;;16.40;96.20;;;;;;4930001;29;20059;-71
2023/07/08 01:49:48;;;;;;;4.15;2.28;;;16.40;96.60;;;;;;4932093;29;20055;-70
2023/07/08 01:52:16;;;;;;;3.22;2.28;;;16.50;96.20;;;;;;4931387;29;20043;-70
2023/07/08 01:54:42;;;;;;;3.42;1.92;;;16.50;96.00;;;;;;4931178;29;20486;-71
2023/07/08 01:57:08;;;;;;;5.03;2.10;;;16.50;95.60;;;;;;4929658;29;20416;-70
2023/07/08 01:59:34;;;;;;;3.85;2.20;;;16.50;95.50;;;;;;4898480;29;20427;-70
2023/07/08 02:02:00;;;;;;;8.32;2.60;;;16.50;95.50;;;;;;4931806;28;20047;-70
2023/07/08 02:04:30;;;;;;;3.97;2.33;;;16.50;95.50;;;;;;4914139;29;20054;-70
2023/07/08 02:06:58;;;;;;;3.20;2.00;;;16.50;95.50;;;;;;4928468;29;20601;-70
2023/07/08 02:09:31;;;;;;;3.75;2.10;;;16.50;95.60;;;;;;4934274;29;20051;-70
2023/07/08 02:11:57;;;;;;;4.90;2.10;;;16.40;95.80;;;;;;4934915;29;20063;-70
2023/07/08 02:14:23;;;;;;;3.83;2.30;;;16.40;95.70;;;;;;4918935;29;20039;-70
2023/07/08 02:16:49;;;;;;;1.90;1.80;;;16.40;95.40;;;;;;4917910;29;20102;-70
2023/07/08 02:19:15;;;;;;;5.32;2.63;;;16.40;94.70;;;;;;4918041;29;20348;-70
2023/07/08 02:21:41;;;;;;;2.92;2.20;;;16.40;94.20;;;;;;4933060;29;20134;-70
2023/07/08 02:24:07;;;;;;;3.92;2.00;;;16.50;93.40;;;;;;4931164;29;20058;-70
2023/07/08 02:26:33;;;;;;;3.70;2.20;;;16.50;93.00;;;;;;4934143;29;20047;-70
2023/07/08 02:28:59;;;;;;;5.20;2.63;;;16.50;92.90;;;;;;4918686;29;20483;-70
2023/07/08 02:31:26;;;;;;;5.40;2.15;;;16.50;92.40;;;;;;4934188;29;20524;-71
2023/07/08 02:33:52;;;;;;;3.17;2.20;;;16.50;92.50;;;;;;4933808;29;20055;-70
2023/07/08 02:36:18;;;;;;;2.97;1.95;;;16.50;92.90;;;;;;4934715;29;20099;-70
2023/07/08 02:38:44;;;;;;;2.22;2.13;;;16.50;92.70;;;;;;4933051;29;20043;-70
2023/07/08 02:41:11;;;;;;;4.63;2.22;;;16.50;92.20;;;;;;4934924;29;20453;-71
2023/07/08 02:43:38;;;;;;;4.45;2.72;;;16.50;92.20;;;;;;4916779;29;20505;-71
2023/07/08 02:46:03;;;;;;;3.13;2.20;;;16.50;92.30;;;;;;4919213;29;20548;-70
2023/07/08 02:48:29;;;;;;;7.78;3.47;;;16.50;92.40;;;;;;4950788;29;21347;-70
2023/07/08 02:51:03;;;;;;;3.63;2.38;;;16.40;92.90;;;;;;4930361;29;20047;-70
2023/07/08 02:53:29;;;;;;;4.43;2.67;;;16.50;93.10;;;;;;4932402;29;20055;-70
2023/07/08 02:55:55;;;;;;;2.65;2.45;;;16.50;93.00;;;;;;4933112;29;20047;-70
2023/07/08 02:58:21;;;;;;;4.78;2.22;;;16.40;93.30;;;;;;4934516;29;20066;-70
2023/07/08 03:00:55;;;;;;;2.45;2.25;;;16.40;93.50;;;;;;4932452;29;20047;-70
2023/07/08 03:03:21;;;;;;;2.17;1.98;;;16.40;93.40;;;;;;4931489;28;20063;-70
2023/07/08 03:05:58;;;;;;;3.40;2.20;;;16.40;93.30;;;;;;4933483;29;20425;-70
2023/07/08 03:08:25;;;;;;;4.22;2.72;;;16.40;93.00;;;;;;4933202;29;20047;-69
2023/07/08 03:11:03;;;;;;;5.65;2.38;;;16.40;93.50;;;;;;4914991;29;20074;-70
2023/07/08 03:13:30;;;;;;;4.72;2.28;;;16.40;93.30;;;;;;4932138;28;20421;-70
2023/07/08 03:15:58;;;;;;;3.03;2.50;;;16.40;92.90;;;;;;4933051;29;20062;-70
2023/07/08 03:18:26;;;;;;;9.02;2.67;;;16.40;92.50;;;;;;4932992;29;20506;-70
2023/07/08 03:20:55;;;;;;;3.40;2.03;;;16.40;92.30;;;;;;4909870;29;20418;-71
2023/07/08 03:23:25;;;;;;;2.65;2.05;;;16.40;91.70;;;;;;4949900;29;20078;-70
2023/07/08 03:25:53;;;;;;;3.85;2.10;;;16.40;91.30;;;;;;4913469;29;20043;-70
2023/07/08 03:28:20;;;;;;;3.22;2.20;;;16.40;91.30;;;;;;4949844;29;20438;-71
2023/07/08 03:30:51;;;;;;;4.88;2.75;;;16.50;91.90;;;;;;4931620;29;20082;-70
2023/07/08 03:33:17;;;;;;;4.43;2.35;;;16.50;92.30;;;;;;4933659;29;20134;-71
2023/07/08 03:35:43;;;;;;;3.95;2.28;;;16.50;92.20;;;;;;4932626;29;20142;-70
2023/07/08 03:38:08;;;;;;;2.63;2.08;;;16.50;92.10;;;;;;4917819;29;20486;-70
2023/07/08 03:40:34;;;;;;;3.90;2.20;;;16.50;91.50;;;;;;4914842;29;20047;-71
2023/07/08 03:43:00;;;;;;;9.02;2.22;;;16.60;90.90;;;;;;4932407;29;20074;-71
2023/07/08 03:45:26;;;;;;;3.20;2.50;;;16.50;90.90;;;;;;4914782;29;20051;-70
2023/07/08 03:47:53;;;;;;;3.10;2.25;;;16.60;91.80;;;;;;4915851;29;20058;-71
2023/07/08 03:50:22;;;;;;;4.15;2.58;;;16.60;92.30;;;;;;4933485;29;20054;-71
2023/07/08 03:52:50;;;;;;;3.72;2.38;;;16.60;92.50;;;;;;4931408;29;20066;-71
2023/07/08 03:55:16;;;;;;;4.60;2.42;;;16.60;93.30;;;;;;4933054;29;20039;-71
2023/07/08 03:57:42;;;;;;;3.08;2.22;;;16.60;94.30;;;;;;4932347;29;20103;-71
2023/07/08 04:00:17;;;;;;;2.80;2.20;;;16.60;95.10;;;;;;4932325;29;20047;-71
2023/07/08 04:02:44;;;;;;;6.03;2.88;;;16.60;94.50;;;;;;4932585;29;20057;-70
2023/07/08 04:05:14;;;;;;;3.38;2.42;;;16.60;94.00;;;;;;4931703;29;20070;-71
2023/07/08 04:07:40;;;;;;;4.57;2.60;;;16.60;93.60;;;;;;4950347;29;20054;-71
2023/07/08 04:10:07;;;;;;;5.22;2.70;;;16.60;92.80;;;;;;4921447;29;20055;-71
2023/07/08 04:12:33;;;;;;;3.50;2.50;;;16.50;93.50;;;;;;4930065;29;20079;-70
2023/07/08 04:14:59;;;;;;;3.70;2.33;;;16.50;92.10;;;;;;4913221;29;20515;-70
2023/07/08 04:17:25;;;;;;;4.35;2.50;;;16.50;92.30;;;;;;4927282;29;20059;-70
2023/07/08 04:19:51;;;;;;;3.92;2.30;;;16.50;92.10;;;;;;4932639;29;20059;-70
2023/07/08 04:22:17;;;;;;;5.63;2.58;;;16.50;91.80;;;;;;4915984;29;20051;-71
2023/07/08 04:24:43;;;;;;;7.85;2.42;;;16.50;92.70;;;;;;4916602;29;20043;-70
2023/07/08 04:27:15;;;;;;;2.55;2.35;;;16.50;93.00;;;;;;4912527;29;20501;-70
2023/07/08 04:29:41;;;;;;;3.10;2.10;;;16.50;93.80;;;;;;4930354;29;20114;-70
2023/07/08 04:32:07;;;;;;;4.95;2.50;;;16.50;93.00;;;;;;4913220;29;20570;-70
2023/07/08 04:34:33;;;;;;;3.28;2.40;;;16.50;93.00;;;;;;4931743;29;20077;-70
2023/07/08 04:36:58;;;;;;;4.63;2.30;;;16.50;92.70;;;;;;4932896;29;20052;-70
2023/07/08 04:39:25;;;;;;;6.15;2.65;;;16.50;92.90;;;;;;4931157;29;20415;-70
2023/07/08 04:41:50;;;;;;;4.35;3.28;;;16.50;93.30;;;;;;4903833;29;20051;-71
2023/07/08 04:44:18;;;;;;;4.25;2.85;;;16.50;92.40;;;;;;4930807;29;20121;-70
2023/07/08 04:46:52;;;;;;;4.68;3.15;;;16.60;92.30;;;;;;4932226;29;20058;-71
2023/07/08 04:49:19;;;;;;;2.78;2.58;;;16.60;92.70;;;;;;4931542;29;20115;-69
2023/07/08 04:51:44;;;;;;;4.10;2.50;;;16.60;92.60;;;;;;4931638;29;20138;-71
2023/07/08 04:54:10;;;;;;;3.53;2.30;;;16.60;92.30;;;;;;4916530;29;20134;-70
2023/07/08 04:56:39;;;;;;;4.43;2.75;;;16.70;91.20;;;;;;4931398;29;20454;-71
2023/07/08 04:59:07;;;;;;;3.40;2.40;;;16.70;91.40;;;;;;4932534;29;20051;-71
2023/07/08 05:01:33;;;;;;;4.68;2.83;;;16.80;90.80;;;;;;4931264;29;20047;-71
2023/07/08 05:03:59;;;;;;;3.65;2.63;;;16.80;92.00;;;;;;4931995;29;20529;-70
2023/07/08 05:06:25;;;;;;;3.17;2.88;;;16.90;92.00;;;;;;4930677;29;20486;-71
2023/07/08 05:08:51;;;;;;;5.43;2.35;;;16.90;92.30;;;;;;4915314;29;20089;-71
2023/07/08 05:11:17;;;;;;;6.18;2.85;;;16.90;92.80;;;;;;4919068;29;20082;-71
2023/07/08 05:13:43;;;;;;;5.05;2.80;;;17.00;92.80;;;;;;4912212;29;20055;-72
2023/07/08 05:16:09;;;;;;;5.65;3.08;;;17.10;92.60;;;;;;4930475;29;20089;-71
2023/07/08 05:18:34;;;;;;;4.45;2.83;;;17.20;91.90;;;;;;4930833;29;20058;-71
2023/07/08 05:21:03;;;;;;;5.00;2.58;;;17.20;92.30;;;;;;4931738;29;20055;-70
2023/07/08 05:23:29;;;;;;;4.30;2.60;;;17.20;92.10;;;;;;4914892;29;20047;-70
2023/07/08 05:25:58;;;;;;;5.40;2.60;;;17.20;91.70;;;;;;4948870;29;20051;-71
2023/07/08 05:28:24;;;;;;;6.40;2.55;;;17.30;91.80;;;;;;4931078;29;20105;-71
2023/07/08 05:30:54;;;;;;;6.07;3.05;;;17.30;92.20;;;;;;4930839;29;20055;-71
2023/07/08 05:33:20;;;;;;;7.43;2.97;;;17.40;92.40;;;;;;4932494;29;20130;-70
2023/07/08 05:35:46;;;;;;;7.07;3.08;;;17.50;93.30;;;;;;4930373;29;20438;-71
2023/07/08 05:38:11;;;;;;;4.32;2.25;;;17.50;93.20;;;;;;4933382;29;20194;-70
2023/07/08 05:40:37;;;;;;;5.72;2.63;;;17.50;91.60;;;;;;4934600;29;20417;-70
2023/07/08 05:43:03;;;;;;;2.78;2.35;;;17.60;90.90;;;;;;4935357;29;20494;-70
2023/07/08 05:45:29;;;;;;;5.30;2.55;;;17.70;90.40;;;;;;4935048;29;20078;-71
2023/07/08 05:47:55;;;;;;;7.05;2.65;;;17.70;91.40;;;;;;4935406;29;20568;-71
2023/07/08 05:50:21;;;;;;;2.42;2.20;;;17.80;90.70;;;;;;4914819;29;20583;-71
2023/07/08 05:52:48;;;;;;;3.03;2.47;;;17.90;91.60;;;;;;4927139;29;20118;-71
2023/07/08 05:55:15;;;;;;;2.65;2.13;;;17.90;89.00;;;;;;4935567;29;20083;-70
2023/07/08 05:57:41;;;;;;;5.60;2.70;;;18.00;86.90;;;;;;4918251;29;20102;-70
2023/07/08 06:00:07;;;;;;;3.25;2.15;;;18.10;90.60;;;;;;4934671;29;20493;-71
2023/07/08 06:02:33;;;;;;;5.10;2.42;;;18.10;89.30;;;;;;4934031;29;20511;-71
2023/07/08 06:04:59;;;;;;;3.42;2.33;;;18.20;86.70;;;;;;4933744;29;20055;-71
2023/07/08 06:07:25;;;;;;;3.10;2.22;;;18.30;88.50;;;;;;4934558;29;20043;-70
2023/07/08 06:09:51;;;;;;;4.22;2.17;;;18.40;86.70;;;;;;4926097;29;20059;-71
2023/07/08 06:12:17;;;;;;;2.95;2.10;;;18.50;85.70;;;;;;4917710;29;20052;-70
2023/07/08 06:14:43;;;;;;;2.22;1.80;;;18.50;75.90;;;;;;4933875;29;20521;-70
2023/07/08 06:17:08;;;;;;;5.93;2.22;;;18.50;73.40;;;;;;4934986;29;20054;-70
2023/07/08 06:19:34;;;;;;;5.65;2.00;;;18.60;68.60;;;;;;4933681;29;20058;-71
2023/07/08 06:22:00;;;;;;;3.63;2.10;;;18.60;73.30;;;;;;4934882;29;20414;-70
2023/07/08 06:24:26;;;;;;;6.28;2.25;;;18.70;66.30;;;;;;4934036;29;20474;-71
2023/07/08 06:26:52;;;;;;;4.82;1.98;;;18.70;64.90;;;;;;4934444;29;20054;-71
2023/07/08 06:29:19;;;;;;;2.63;1.67;;;18.80;62.80;;;;;;4934716;29;20051;-70
2023/07/08 06:31:45;;;;;;;2.95;1.80;;;18.90;68.70;;;;;;4914665;29;20063;-69
2023/07/08 06:34:10;;;;;;;4.13;2.35;;;19.10;61.90;;;;;;4927628;29;20050;-70
2023/07/08 06:36:36;;;;;;;3.83;1.95;;;19.20;59.50;;;;;;4932330;29;20039;-69
2023/07/08 06:39:02;;;;;;;4.22;2.28;;;19.20;53.90;;;;;;4925959;29;20126;-70
2023/07/08 06:41:28;;;;;;;4.60;2.20;;;19.30;62.40;;;;;;4932539;29;20620;-70
2023/07/08 06:43:54;;;;;;;2.47;1.65;;;19.30;61.20;;;;;;4934494;29;20043;-70
2023/07/08 06:46:20;;;;;;;4.45;2.28;;;19.40;67.00;;;;;;4918827;29;20456;-69
2023/07/08 06:48:46;;;;;;;2.25;2.00;;;19.50;67.40;;;;;;4950818;28;20114;-70
2023/07/08 06:51:11;;;;;;;6.75;2.15;;;19.50;68.10;;;;;;4934150;29;20134;-70
2023/07/08 06:53:37;;;;;;;2.08;1.70;;;19.70;74.30;;;;;;4929353;29;20051;-69
2023/07/08 06:56:03;;;;;;;4.75;2.30;;;19.70;69.50;;;;;;4926382;29;20533;-70
2023/07/08 06:58:29;;;;;;;2.38;1.88;;;19.80;64.40;;;;;;4905938;29;20051;-71
2023/07/08 07:00:54;;;;;;;10.88;2.58;;;19.90;66.30;;;;;;4933377;29;20054;-70
2023/07/08 07:03:20;;;;;;;2.97;1.88;;;20.00;69.80;;;;;;4947281;28;20458;-70
2023/07/08 07:05:46;;;;;;;6.78;2.30;;;20.10;70.10;;;;;;4951007;29;20360;-71
2023/07/08 07:08:12;;;;;;;5.30;1.73;;;20.20;63.30;;;;;;4914481;29;20055;-70
2023/07/08 07:10:38;;;;;;;2.72;1.70;;;20.30;59.80;;;;;;4921324;29;20048;-70
2023/07/08 07:13:03;;;;;;;5.18;2.15;;;20.40;53.10;;;;;;4951356;29;20409;-72
2023/07/08 07:15:30;;;;;;;2.13;1.60;;;20.50;54.50;;;;;;4914854;29;20115;-71
2023/07/08 07:17:56;;;;;;;5.25;1.90;;;20.60;55.50;;;;;;4915450;29;20078;-71
2023/07/08 07:20:22;;;;;;;4.55;1.85;;;20.70;48.50;;;;;;4930746;29;20099;-70
2023/07/08 07:22:48;;;;;;;5.47;2.15;;;20.80;52.80;;;;;;4930655;29;20044;-71
2023/07/08 07:25:14;;;;;;;1.92;1.77;;;21.00;45.30;;;;;;4922954;29;20097;-70
2023/07/08 07:27:39;;;;;;;2.38;1.67;;;21.10;44.40;;;;;;4916081;29;20051;-71
2023/07/08 07:30:06;;;;;;;1.67;1.50;;;21.30;36.40;;;;;;4932479;29;20129;-69
2023/07/08 07:32:33;;;;;;;3.00;1.80;;;21.60;39.20;;;;;;4915169;29;20074;-70
2023/07/08 07:34:59;;;;;;;3.25;1.60;;;21.80;36.60;;;;;;4934021;29;20050;-70
2023/07/08 07:37:25;;;;;;;3.28;1.75;;;21.90;27.10;;;;;;4935080;29;20534;-70
2023/07/08 07:39:51;;;;;;;3.28;1.83;;;22.20;22.00;;;;;;4933531;29;20386;-71
2023/07/08 07:42:19;;;;;;;2.50;1.45;;;22.40;12.80;;;;;;4932092;29;20047;-70
2023/07/08 07:44:46;;;;;;;2.42;1.70;;;22.80;12.30;;;;;;4927191;29;20051;-70
2023/07/08 07:47:12;;;;;;;2.35;1.60;;;23.00;9.10;;;;;;4931324;29;20058;-70
2023/07/08 07:49:38;;;;;;;4.07;1.80;;;23.30;6.60;;;;;;4932044;29;20051;-71
2023/07/08 07:52:05;;;;;;;3.22;1.73;;;23.50;1.00;;;;;;4930031;29;20050;-69
2023/07/08 07:54:31;;;;;;;1.90;1.15;;;23.80;1.00;;;;;;4949001;28;20085;-70
2023/07/08 07:56:56;;;;;;;1.90;1.48;;;24.10;1.00;;;;;;4930467;29;20471;-70
2023/07/08 07:59:22;;;;;;;2.85;1.65;;;24.30;1.00;;;;;;4930816;29;20421;-69
2023/07/08 08:01:48;;;;;;;2.08;1.60;;;24.60;1.00;;;;;;4926763;29;20051;-70
2023/07/08 08:04:14;;;;;;;2.45;1.40;;;24.90;1.00;;;;;;4931832;29;20114;-68
2023/07/08 08:06:40;;;;;;;1.73;1.48;;;25.00;1.00;;;;;;4911627;29;20411;-69
2023/07/08 08:09:06;;;;;;;1.92;1.50;;;25.20;1.00;;;;;;4914966;29;20043;-69
2023/07/08 08:11:33;;;;;;;1.88;1.40;;;25.40;1.00;;;;;;4923505;29;20051;-69
2023/07/08 08:14:00;;;;;;;4.05;1.92;;;25.50;1.00;;;;;;4950582;29;20047;-70
2023/07/08 08:16:26;;;;;;;1.23;1.20;;;25.80;1.00;;;;;;4931175;29;20454;-70
2023/07/08 08:18:52;;;;;;;3.30;1.48;;;26.00;1.00;;;;;;4933153;29;20051;-70
2023/07/08 08:21:18;;;;;;;2.95;1.60;;;26.00;1.00;;;;;;4916417;29;20405;-69
2023/07/08 08:23:44;;;;;;;1.67;1.40;;;25.90;1.00;;;;;;4922309;29;20048;-69
2023/07/08 08:26:09;;;;;;;2.50;1.40;;;26.00;1.00;;;;;;4913417;29;20393;-70
2023/07/08 08:28:35;;;;;;;2.78;1.50;;;26.20;1.00;;;;;;4931527;29;20154;-69
2023/07/08 08:31:01;;;;;;;1.95;1.30;;;26.30;1.00;;;;;;4950028;29;20055;-70
2023/07/08 08:33:27;;;;;;;1.50;1.40;;;26.40;1.00;;;;;;4948212;29;20389;-71
2023/07/08 08:35:53;;;;;;;3.30;1.40;;;26.40;1.00;;;;;;4917186;29;20057;-69
2023/07/08 08:38:18;;;;;;;4.47;1.40;;;26.50;1.00;;;;;;4914419;29;20048;-70
2023/07/08 08:40:45;;;;;;;3.05;1.58;;;26.40;1.00;;;;;;4916659;29;20083;-70
2023/07/08 08:43:17;;;;;;;2.05;1.45;;;26.40;1.00;;;;;;4931295;29;20105;-70
2023/07/08 08:46:00;;;;;;;3.45;1.65;;;26.60;1.00;;;;;;4931048;29;20051;-70
2023/07/08 08:48:29;;;;;;;2.38;1.40;;;26.70;1.00;;;;;;4916468;29;20500;-68
2023/07/08 08:51:02;;;;;;;3.72;1.30;;;26.80;1.00;;;;;;4930896;29;20067;-69
2023/07/08 08:53:27;;;;;;;2.35;1.20;;;26.80;1.00;;;;;;4916650;29;20106;-70
2023/07/08 08:56:05;;;;;;;2.60;1.48;;;26.90;1.00;;;;;;4931384;29;20439;-70
2023/07/08 08:58:43;;;;;;;2.72;1.25;;;27.00;1.00;;;;;;4931194;29;20051;-69
2023/07/08 09:01:13;;;;;;;4.90;1.80;;;27.10;1.00;;;;;;4932479;29;20054;-69
2023/07/08 09:04:17;;;;;;;1.40;1.30;;;27.30;1.00;;;;;;4929961;29;20143;-70
2023/07/08 09:06:45;;;;;;;2.67;1.50;;;27.30;1.00;;;;;;4924189;29;20066;-70
2023/07/08 09:09:39;;;;;;;1.38;1.25;;;27.40;1.00;;;;;;4929002;29;20573;-69
2023/07/08 09:12:11;;;;;;;2.05;1.55;;;27.50;1.00;;;;;;4925289;29;20069;-70
2023/07/08 09:14:38;;;;;;;3.45;1.52;;;27.50;1.00;;;;;;4926895;29;20375;-68
2023/07/08 09:17:34;;;;;;;3.15;1.60;;;27.40;1.00;;;;;;4924474;29;20122;-70
2023/07/08 09:20:19;;;;;;;1.23;1.10;;;27.50;1.00;;;;;;4924819;29;20399;-69
2023/07/08 09:22:50;;;;;;;1.80;1.52;;;27.50;1.00;;;;;;4926836;29;20070;-70
2023/07/08 09:25:25;;;;;;;1.75;1.15;;;27.60;1.00;;;;;;4941344;29;20039;-70
2023/07/08 09:27:52;;;;;;;6.45;1.48;;;27.70;1.00;;;;;;4932115;29;20086;-69
2023/07/08 09:30:21;;;;;;;1.60;1.38;;;27.80;1.00;;;;;;4930916;29;20062;-70
2023/07/08 09:32:47;;;;;;;;;;;27.90;1.00;;;;;;4949192;29;20043;-70
2023/07/08 09:35:29;;;;;;;1.10;1.10;;;28.00;1.00;;;;;;4928880;29;20298;-69
2023/07/08 09:37:55;;;;;;;2.70;1.52;;;28.00;1.00;;;;;;4914095;29;20467;-69
2023/07/08 09:40:28;;;;;;;1.67;1.58;;;28.00;1.00;;;;;;4929260;29;20054;-70
2023/07/08 09:43:03;;;;;;;1.25;1.17;;;28.10;1.00;;;;;;4923103;29;20403;-70
2023/07/08 09:45:39;;;;;;;2.45;0.98;;;28.20;1.00;;;;;;4925180;29;20135;-70
2023/07/08 09:48:19;;;;;;;3.00;1.30;;;28.20;1.00;;;;;;4930889;29;20488;-69
2023/07/08 09:50:48;;;;;;;1.73;1.20;;;28.20;1.00;;;;;;4947355;29;20047;-69
2023/07/08 09:53:14;;;;;;;1.05;1.05;;;28.30;1.00;;;;;;4931835;29;20469;-70
2023/07/08 09:55:41;;;;;;;3.05;1.42;;;28.30;1.00;;;;;;4912064;29;20094;-71
2023/07/08 09:58:13;;;;;;;1.60;1.33;;;28.30;1.00;;;;;;4922436;29;20122;-70
2023/07/08 10:00:41;;;;;;;1.70;1.58;;;28.40;1.00;;;;;;4911547;29;20205;-70
2023/07/08 10:03:20;;;;;;;2.53;1.15;;;28.40;1.00;;;;;;4924962;29;20502;-70
2023/07/08 10:05:48;;;;;;;1.33;0.95;;;28.30;1.00;;;;;;4946066;29;20050;-70
2023/07/08 10:08:17;;;;;;;1.50;1.20;;;28.40;1.00;;;;;;4925887;29;20513;-70
2023/07/08 10:10:46;;;;;;;1.02;1.02;;;28.50;1.00;;;;;;4915053;29;20047;-70
2023/07/08 10:13:18;;;;;;;3.70;1.67;;;28.60;1.00;;;;;;4946662;29;20126;-70
2023/07/08 10:15:50;;;;;;;2.55;1.45;;;28.60;1.00;;;;;;4930839;29;20518;-70
2023/07/08 10:18:17;;;;;;;4.82;1.30;;;28.70;1.00;;;;;;4928167;29;20069;-70
2023/07/08 10:21:20;;;;;;;1.10;1.10;;;28.60;1.00;;;;;;4925293;29;20446;-70
2023/07/08 10:24:07;;;;;;;1.45;1.40;;;28.60;1.00;;;;;;4940972;28;20047;-70
2023/07/08 10:26:34;;;;;;;1.67;1.58;;;28.70;1.00;;;;;;4926465;29;20390;-69
2023/07/08 10:29:34;;;;;;;1.35;1.10;;;28.90;1.00;;;;;;4934310;29;20050;-69
2023/07/08 10:32:21;;;;;;;7.32;1.27;;;29.00;1.00;;;;;;4914492;29;20055;-70
2023/07/08 10:34:59;;;;;;;1.58;1.25;;;29.10;1.00;;;;;;4908748;29;20054;-70
2023/07/08 10:38:01;;;;;;;2.13;1.08;;;29.10;1.00;;;;;;4906432;29;20047;-70
2023/07/08 10:40:26;;;;;;;1.42;1.30;;;29.20;1.00;;;;;;4904580;29;20043;-69
2023/07/08 10:43:18;;;;;;;2.28;1.15;;;29.20;1.00;;;;;;4929976;29;20128;-69
2023/07/08 10:46:22;;;;;;;1.88;1.02;;;29.30;1.00;;;;;;4934119;29;20336;-70
2023/07/08 10:49:20;;;;;;;1.08;1.08;;;29.30;1.00;;;;;;4926594;29;20150;-70
2023/07/08 10:51:59;;;;;;;1.45;1.35;;;29.30;1.00;;;;;;4929639;29;20139;-70
2023/07/08 10:54:39;;;;;;;3.65;1.40;;;29.40;1.00;;;;;;4934113;29;20049;-70
2023/07/08 10:57:33;;;;;;;10.65;1.35;;;29.30;1.00;;;;;;4929242;29;20083;-69
2023/07/08 11:00:08;;;;;;;1.45;1.33;;;29.30;1.00;;;;;;4920364;29;20079;-70
2023/07/08 11:03:03;;;;;;;1.73;1.38;;;29.40;1.00;;;;;;4931335;29;20062;-69
2023/07/08 11:05:49;;;;;;;1.30;1.20;;;29.30;1.00;;;;;;4944476;29;20094;-70
2023/07/08 11:08:27;;;;;;;4.03;1.38;;;29.10;1.00;;;;;;4929280;29;20122;-70
2023/07/08 11:11:03;;;;;;;1.58;1.42;;;29.20;1.00;;;;;;4930861;29;20102;-70
2023/07/08 11:13:32;;;;;;;2.92;1.13;;;29.40;1.00;;;;;;4932692;29;20055;-70
2023/07/08 11:16:01;;;;;;;;;;;29.60;1.00;;;;;;4934986;29;20129;-70
2023/07/08 11:18:46;;;;;;;1.67;1.10;;;29.60;1.00;;;;;;4917648;29;19926;-70
2023/07/08 11:21:27;;;;;;;3.17;1.25;;;29.50;1.00;;;;;;4930758;29;20513;-69
2023/07/08 11:24:05;;;;;;;3.35;1.10;;;29.40;1.00;;;;;;4933413;29;20090;-70
2023/07/08 11:27:18;;;;;;;1.20;1.20;;;29.50;1.00;;;;;;4932391;29;20095;-69
2023/07/08 11:30:25;;;;;;;1.35;1.08;;;29.60;1.00;;;;;;4931600;29;20059;-69
2023/07/08 11:33:06;;;;;;;1.30;1.20;;;29.60;1.00;;;;;;4875855;29;20443;-69
2023/07/08 11:35:49;;;;;;;1.25;1.17;;;29.60;1.00;;;;;;4925390;29;20064;-70
2023/07/08 11:38:19;;;;;;;1.50;1.40;;;29.60;1.00;;;;;;4932560;29;20390;-69
2023/07/08 11:40:58;;;;;;;2.03;1.35;;;29.60;1.00;;;;;;4932819;29;20055;-70
2023/07/08 11:43:28;;;;;;;1.48;1.38;;;29.60;1.00;;;;;;4949541;29;20126;-70
2023/07/08 11:45:57;;;;;;;1.45;1.35;;;29.70;1.00;;;;;;4950773;29;20046;-70
2023/07/08 11:48:34;;;;;;;1.35;1.25;;;29.70;1.00;;;;;;4949886;29;20490;-70
2023/07/08 11:51:05;;;;;;;1.42;1.35;;;29.70;1.00;;;;;;4924497;29;20409;-70
2023/07/08 11:53:35;;;;;;;1.40;1.40;;;29.80;1.00;;;;;;4933197;29;20046;-70
2023/07/08 11:56:22;;;;;;;1.50;1.30;;;29.70;1.00;;;;;;4912624;29;20140;-70
2023/07/08 11:59:03;;;;;;;1.60;1.50;;;29.70;1.00;;;;;;4932821;29;20058;-69
2023/07/08 12:01:40;;;;;;;2.03;1.50;;;29.70;1.00;;;;;;4949155;29;20585;-70
2023/07/08 12:04:10;;;;;;;5.65;2.75;;;29.70;1.00;;;;;;4917656;29;20110;-70
2023/07/08 12:06:35;;;;;;;2.30;1.52;;;29.70;1.00;;;;;;4933094;29;20074;-70
2023/07/08 12:09:15;;;;;;;4.97;1.50;;;29.70;1.00;;;;;;4946669;29;20039;-69
2023/07/08 12:11:45;;;;;;;1.50;1.40;;;29.70;1.00;;;;;;4930602;29;20054;-70
2023/07/08 12:14:11;;;;;;;1.70;1.60;;;29.80;1.00;;;;;;4931680;29;20055;-70
2023/07/08 12:16:39;;;;;;;1.63;1.52;;;29.90;1.00;;;;;;4932664;29;20047;-71
2023/07/08 12:19:06;;;;;;;1.58;1.42;;;29.90;1.00;;;;;;4933036;29;20093;-70
2023/07/08 12:21:35;;;;;;;1.42;1.40;;;29.90;1.00;;;;;;4931642;29;20047;-71
2023/07/08 12:24:06;;;;;;;3.70;1.75;;;29.90;1.00;;;;;;4932476;29;20047;-71
2023/07/08 12:26:33;;;;;;;2.28;1.70;;;29.90;1.00;;;;;;4896697;29;20111;-71
2023/07/08 12:28:59;;;;;;;1.63;1.52;;;29.90;1.00;;;;;;4928844;29;20043;-71
2023/07/08 12:31:25;;;;;;;2.40;1.80;;;29.90;1.00;;;;;;4930850;29;20045;-71
2023/07/08 12:33:51;;;;;;;1.70;1.60;;;30.00;1.00;;;;;;4928360;29;20375;-71
2023/07/08 12:36:28;;;;;;;3.22;1.52;;;29.90;1.00;;;;;;4932339;29;20514;-71
2023/07/08 12:38:59;;;;;;;4.07;1.88;;;29.80;1.00;;;;;;4930798;29;20098;-71
2023/07/08 12:41:29;;;;;;;1.95;1.42;;;29.80;1.00;;;;;;4932548;29;20579;-71
2023/07/08 12:43:55;;;;;;;1.95;1.45;;;29.80;1.00;;;;;;4937158;29;20098;-70
2023/07/08 12:46:23;;;;;;;1.70;1.60;;;29.80;1.00;;;;;;4910446;29;20051;-71
2023/07/08 12:48:49;;;;;;;8.30;1.70;;;29.80;1.00;;;;;;4947026;29;20498;-71
2023/07/08 12:51:21;;;;;;;6.10;1.55;;;29.80;1.00;;;;;;4949443;29;20039;-70
2023/07/08 12:53:48;;;;;;;4.82;1.77;;;29.90;1.00;;;;;;4945174;29;20122;-71
2023/07/08 12:56:15;;;;;;;2.45;1.80;;;29.90;1.00;;;;;;4948291;29;20047;-71
2023/07/08 12:58:48;;;;;;;3.85;1.90;;;29.90;1.00;;;;;;4932138;29;20047;-71
2023/07/08 13:01:29;;;;;;;3.35;2.67;;;29.70;1.00;;;;;;4930708;29;20421;-70
2023/07/08 13:04:02;;;;;;;1.88;1.77;;;29.70;1.00;;;;;;4948939;28;20142;-71
2023/07/08 13:06:31;;;;;;;1.75;1.70;;;29.80;1.00;;;;;;4932694;29;20065;-71